Hlavní strana
METAR-TAF:

METAR-TAF

Letiště :

Trollhättan-Vänersborg, Švédsko

zeměpisná šířka: 58-19N, zeměpisná délka: 012-21E, výška: 41 m

Aktuální stav počasí

Zpráva byla vytvořena před 23 minutami, v 04:50 UTC
Jihojihovýchodní vítr 4 kt
Teplota 11°C
Vlhkost vzduchu 94%
Tlak 1018 hPa
Viditelnost: 8000 m
Polojasno ve výšce 600 ft
Oblačno až skoro zataženo ve výšce 4700 ft
Zataženo ve výšce 6600 ft
déšť

METAR: ESGT 220450Z 16004KT 8000 RA SCT006 BKN047 OVC066 11/10 Q1018

Čas: 07:13 (05:13 UTC)

Předpověď počasí

Zpráva byla vytvořena před 43 minutami, v 04:30 UTC
Předpověď platná od 22 v 05 UTC do 22 v 12 UTC
Jižní vítr 7 kt
Viditelnost 10 km a více
Polojasno ve výšce 2500 ft
Oblačno až skoro zataženo ve výšce 4000 ft

TAF: ESGT 220430Z 2205/2212 19007KT 9999 SCT025 BKN040

Stav a předpovědi počasí z více než 4 000 letišť (zprávy METAR a TAF).

Červené a žluté tečky na mapě představují dostupné meteorologické stanice.

Když kurzor umístíte na tečku, zobrazí se název stanice.

Pak kliknutím zobrazíte stav a předpověď počasí.

Chcete-li změnit mapu, kliknutím na zelené tlačítko se znaménkem +mapu přiblížíte, kliknutím na zelené tlačítko se znaménkem – mapu oddálíte a kliknutím na zelené šipky přejdete na sousední mapy.


METAR-TAF: